Time;durP1;ratioP1;P1;durP2;ratioP2;P2;SDS_P1;SDS_P2;PMS_P1;PMS_P2;Temp;Humidity;BMP_temperature;BMP_pressure;BME280_temperature;BME280_humidity;BME280_pressure;Samples;Min_cycle;Max_cycle;Signal;HPM_P1;HPM_P2
2023/07/16 00:00:13;;;;;;;12.50;11.20;;;;;;;-128.00;-1.00;-1.00;105888;1250;1003947;-71
2023/07/16 00:02:59;;;;;;;10.90;9.90;;;;;;;-128.00;-1.00;-1.00;105906;1251;1046472;-71
2023/07/16 00:05:26;;;;;;;10.80;9.80;;;;;;;-128.00;-1.00;-1.00;105923;1251;1003816;-71
2023/07/16 00:07:52;;;;;;;11.10;10.00;;;;;;;-128.00;-1.00;-1.00;105886;1250;1004434;-71
2023/07/16 00:10:19;;;;;;;11.40;10.30;;;;;;;-128.00;-1.00;-1.00;105892;1251;1004725;-72
2023/07/16 00:12:46;;;;;;;11.80;10.60;;;;;;;-128.00;-1.00;-1.00;105904;1251;1004443;-72
2023/07/16 00:15:12;;;;;;;11.00;10.10;;;;;;;-128.00;-1.00;-1.00;105856;1251;1004907;-70
2023/07/16 00:17:39;;;;;;;10.70;9.70;;;;;;;-128.00;-1.00;-1.00;105743;1250;1004412;-70
2023/07/16 00:20:14;;;;;;;11.90;9.80;;;;;;;-128.00;-1.00;-1.00;105857;1250;1004547;-70
2023/07/16 00:22:41;;;;;;;11.60;10.60;;;;;;;-128.00;-1.00;-1.00;105919;1251;1055189;-70
2023/07/16 00:25:08;;;;;;;12.20;11.00;;;;;;;-128.00;-1.00;-1.00;105861;1251;1004258;-71
2023/07/16 00:27:34;;;;;;;11.30;10.20;;;;;;;-128.00;-1.00;-1.00;105893;1251;1004159;-71
2023/07/16 00:30:01;;;;;;;12.40;10.90;;;;;;;-128.00;-1.00;-1.00;105896;1251;1005033;-71
2023/07/16 00:32:27;;;;;;;11.00;9.90;;;;;;;-128.00;-1.00;-1.00;105925;1250;1003821;-71
2023/07/16 00:34:54;;;;;;;13.20;10.70;;;;;;;-128.00;-1.00;-1.00;105876;1251;1004735;-71
2023/07/16 00:37:21;;;;;;;11.80;10.70;;;;;;;-128.00;-1.00;-1.00;105824;1251;1004885;-71
2023/07/16 00:39:47;;;;;;;11.10;10.00;;;;;;;-128.00;-1.00;-1.00;105829;1251;1004277;-71
2023/07/16 00:42:14;;;;;;;12.20;11.10;;;;;;;-128.00;-1.00;-1.00;105866;1251;1003845;-71
2023/07/16 00:44:40;;;;;;;12.10;10.90;;;;;;;-128.00;-1.00;-1.00;105953;1251;1004523;-71
2023/07/16 00:47:08;;;;;;;12.50;11.20;;;;;;;-128.00;-1.00;-1.00;105918;1251;1004001;-71
2023/07/16 00:49:36;;;;;;;12.30;11.20;;;;;;;-128.00;-1.00;-1.00;105903;1251;1004024;-71
2023/07/16 00:52:04;;;;;;;12.10;10.90;;;;;;;-128.00;-1.00;-1.00;105848;1251;1003980;-71
2023/07/16 00:54:31;;;;;;;11.30;10.30;;;;;;;-128.00;-1.00;-1.00;105926;1251;1004853;-71
2023/07/16 00:56:58;;;;;;;12.10;11.00;;;;;;;-128.00;-1.00;-1.00;105881;1250;1005332;-71
2023/07/16 00:59:24;;;;;;;11.40;10.40;;;;;;;-128.00;-1.00;-1.00;105915;1251;1004812;-71
2023/07/16 01:01:51;;;;;;;11.60;10.50;;;;;;;-128.00;-1.00;-1.00;105707;1251;1004216;-71
2023/07/16 01:04:18;;;;;;;12.00;10.60;;;;;;;-128.00;-1.00;-1.00;105925;1251;1004305;-72
2023/07/16 01:06:50;;;;;;;12.00;10.80;;;;;;;-128.00;-1.00;-1.00;105783;1251;1004244;-71
2023/07/16 01:09:18;;;;;;;12.00;10.80;;;;;;;-128.00;-1.00;-1.00;105940;1251;1060069;-72
2023/07/16 01:11:46;;;;;;;11.10;10.10;;;;;;;-128.00;-1.00;-1.00;105864;1251;1055476;-71
2023/07/16 01:14:16;;;;;;;13.10;10.00;;;;;;;-128.00;-1.00;-1.00;105639;1251;1004331;-71
2023/07/16 01:16:42;;;;;;;11.50;10.30;;;;;;;-128.00;-1.00;-1.00;105884;1251;1046045;-71
2023/07/16 01:19:10;;;;;;;10.60;9.60;;;;;;;-128.00;-1.00;-1.00;105688;1250;1004940;-71
2023/07/16 01:22:02;;;;;;;11.30;10.20;;;;;;;-128.00;-1.00;-1.00;105901;1250;1004405;-71
2023/07/16 01:24:45;;;;;;;10.90;9.90;;;;;;;-128.00;-1.00;-1.00;105620;1251;1055119;-71
2023/07/16 01:27:39;;;;;;;10.90;10.00;;;;;;;-128.00;-1.00;-1.00;105879;1250;1059313;-71
2023/07/16 01:30:11;;;;;;;11.40;10.30;;;;;;;-128.00;-1.00;-1.00;105900;1251;1045583;-71
2023/07/16 01:32:39;;;;;;;11.10;9.90;;;;;;;-128.00;-1.00;-1.00;105933;1251;1046668;-71
2023/07/16 01:35:07;;;;;;;11.50;10.40;;;;;;;-128.00;-1.00;-1.00;105910;1250;1003667;-71
2023/07/16 01:37:33;;;;;;;11.90;10.80;;;;;;;-128.00;-1.00;-1.00;105895;1250;1005067;-71
2023/07/16 01:40:01;;;;;;;11.00;10.10;;;;;;;-128.00;-1.00;-1.00;105865;1251;1003669;-71
2023/07/16 01:42:28;;;;;;;11.40;10.30;;;;;;;-128.00;-1.00;-1.00;105913;1251;1003842;-71
2023/07/16 01:44:55;;;;;;;10.80;9.70;;;;;;;-128.00;-1.00;-1.00;105951;1251;1004309;-70
2023/07/16 01:47:37;;;;;;;11.70;10.50;;;;;;;-128.00;-1.00;-1.00;105953;1251;1004749;-71
2023/07/16 01:50:05;;;;;;;11.20;10.20;;;;;;;-128.00;-1.00;-1.00;105961;1251;1054636;-71
2023/07/16 01:52:31;;;;;;;10.10;9.20;;;;;;;-128.00;-1.00;-1.00;105542;1251;1004515;-72
2023/07/16 01:54:58;;;;;;;10.60;9.80;;;;;;;-128.00;-1.00;-1.00;105944;1250;1003357;-71
2023/07/16 01:57:25;;;;;;;10.70;9.50;;;;;;;-128.00;-1.00;-1.00;105902;1251;1003965;-71
2023/07/16 01:59:51;;;;;;;9.90;9.00;;;;;;;-128.00;-1.00;-1.00;105580;1251;1004419;-71
2023/07/16 02:02:18;;;;;;;10.90;9.80;;;;;;;-128.00;-1.00;-1.00;105921;1250;1004676;-71
2023/07/16 02:04:44;;;;;;;10.50;9.50;;;;;;;-128.00;-1.00;-1.00;105880;1251;1003992;-71
2023/07/16 02:07:11;;;;;;;10.80;9.80;;;;;;;-128.00;-1.00;-1.00;105900;1250;1004107;-71
2023/07/16 02:09:37;;;;;;;10.80;9.80;;;;;;;-128.00;-1.00;-1.00;105955;1250;1004484;-71
2023/07/16 02:12:04;;;;;;;11.70;9.70;;;;;;;-128.00;-1.00;-1.00;105936;1250;1004082;-72
2023/07/16 02:14:31;;;;;;;11.00;9.90;;;;;;;-128.00;-1.00;-1.00;105926;1250;1004194;-71
2023/07/16 02:16:57;;;;;;;10.50;9.50;;;;;;;-128.00;-1.00;-1.00;105874;1251;1004670;-71
2023/07/16 02:19:25;;;;;;;11.00;9.20;;;;;;;-128.00;-1.00;-1.00;105946;1250;1004445;-71
2023/07/16 02:21:52;;;;;;;9.90;9.00;;;;;;;-128.00;-1.00;-1.00;105950;1250;1004070;-71
2023/07/16 02:24:19;;;;;;;10.60;9.50;;;;;;;-128.00;-1.00;-1.00;105982;1251;1004930;-71
2023/07/16 02:26:45;;;;;;;9.90;8.90;;;;;;;-128.00;-1.00;-1.00;105929;1251;1005011;-70
2023/07/16 02:29:12;;;;;;;10.00;9.20;;;;;;;-128.00;-1.00;-1.00;105914;1250;1004840;-71
2023/07/16 02:31:38;;;;;;;9.40;8.40;;;;;;;-128.00;-1.00;-1.00;105923;1251;1004374;-71
2023/07/16 02:34:05;;;;;;;11.30;10.20;;;;;;;-128.00;-1.00;-1.00;105899;1250;1004799;-72
2023/07/16 02:36:32;;;;;;;10.30;9.40;;;;;;;-128.00;-1.00;-1.00;105644;1251;1003580;-71
2023/07/16 02:38:58;;;;;;;10.40;9.50;;;;;;;-128.00;-1.00;-1.00;105958;1251;1004787;-72
2023/07/16 02:41:25;;;;;;;10.60;9.70;;;;;;;-128.00;-1.00;-1.00;105897;1250;1004466;-72
2023/07/16 02:44:00;;;;;;;10.80;9.40;;;;;;;-128.00;-1.00;-1.00;105895;1250;1003892;-71
2023/07/16 02:46:27;;;;;;;10.20;9.30;;;;;;;-128.00;-1.00;-1.00;105971;1250;1047391;-71
2023/07/16 02:48:53;;;;;;;10.90;9.80;;;;;;;-128.00;-1.00;-1.00;105953;1250;1004651;-71
2023/07/16 02:51:20;;;;;;;10.80;9.80;;;;;;;-128.00;-1.00;-1.00;105962;1250;1003887;-71
2023/07/16 02:53:47;;;;;;;10.40;9.40;;;;;;;-128.00;-1.00;-1.00;105905;1250;1004057;-71
2023/07/16 02:56:13;;;;;;;11.10;10.10;;;;;;;-128.00;-1.00;-1.00;105927;1250;1003651;-72
2023/07/16 02:58:40;;;;;;;10.70;9.70;;;;;;;-128.00;-1.00;-1.00;105896;1250;1003746;-70
2023/07/16 03:01:07;;;;;;;10.80;9.50;;;;;;;-128.00;-1.00;-1.00;105920;1250;1005314;-72
2023/07/16 03:03:33;;;;;;;10.10;9.20;;;;;;;-128.00;-1.00;-1.00;105888;1250;1003413;-71
2023/07/16 03:06:00;;;;;;;10.40;9.40;;;;;;;-128.00;-1.00;-1.00;105922;1250;1003700;-72
2023/07/16 03:08:29;;;;;;;11.40;10.20;;;;;;;-128.00;-1.00;-1.00;105893;1250;1004083;-72
2023/07/16 03:10:57;;;;;;;10.60;9.70;;;;;;;-128.00;-1.00;-1.00;105693;1250;1047100;-72
2023/07/16 03:13:23;;;;;;;10.60;9.60;;;;;;;-128.00;-1.00;-1.00;105910;1250;1003308;-72
2023/07/16 03:15:50;;;;;;;10.90;9.90;;;;;;;-128.00;-1.00;-1.00;105706;1251;1004516;-72
2023/07/16 03:18:20;;;;;;;11.50;10.30;;;;;;;-128.00;-1.00;-1.00;105830;1250;1004511;-72
2023/07/16 03:20:46;;;;;;;10.90;9.80;;;;;;;-128.00;-1.00;-1.00;105881;1250;1046289;-72
2023/07/16 03:23:13;;;;;;;12.80;10.50;;;;;;;-128.00;-1.00;-1.00;105712;1251;1004451;-72
2023/07/16 03:25:40;;;;;;;11.10;10.00;;;;;;;-128.00;-1.00;-1.00;105926;1250;1003885;-72
2023/07/16 03:28:06;;;;;;;11.10;10.10;;;;;;;-128.00;-1.00;-1.00;105903;1250;1004090;-72
2023/07/16 03:30:33;;;;;;;10.10;9.10;;;;;;;-128.00;-1.00;-1.00;105878;1250;1004396;-72
2023/07/16 03:33:00;;;;;;;10.90;9.80;;;;;;;-128.00;-1.00;-1.00;105903;1250;1003963;-72
2023/07/16 03:35:26;;;;;;;10.50;9.50;;;;;;;-128.00;-1.00;-1.00;105885;1250;1003598;-72
2023/07/16 03:37:53;;;;;;;9.50;8.60;;;;;;;-128.00;-1.00;-1.00;105932;1250;1004690;-72
2023/07/16 03:40:24;;;;;;;9.40;8.60;;;;;;;-128.00;-1.00;-1.00;105898;1250;1003902;-72
2023/07/16 03:42:50;;;;;;;9.20;8.30;;;;;;;-128.00;-1.00;-1.00;105576;1251;1059583;-72
2023/07/16 03:45:17;;;;;;;8.50;7.80;;;;;;;-128.00;-1.00;-1.00;105907;1250;1004585;-73
2023/07/16 03:47:44;;;;;;;8.70;7.90;;;;;;;-128.00;-1.00;-1.00;105682;1251;1004743;-72
2023/07/16 03:50:11;;;;;;;9.40;8.50;;;;;;;-128.00;-1.00;-1.00;105979;1250;1004147;-72
2023/07/16 03:52:37;;;;;;;9.00;8.30;;;;;;;-128.00;-1.00;-1.00;105903;1250;1004563;-72
2023/07/16 03:55:05;;;;;;;8.40;7.80;;;;;;;-128.00;-1.00;-1.00;105939;1250;1004293;-72
2023/07/16 03:57:31;;;;;;;8.40;7.60;;;;;;;-128.00;-1.00;-1.00;105578;1251;1003478;-72
2023/07/16 03:59:58;;;;;;;8.20;7.50;;;;;;;-128.00;-1.00;-1.00;105961;1250;1004912;-72
2023/07/16 04:02:25;;;;;;;8.40;7.60;;;;;;;-128.00;-1.00;-1.00;105916;1250;1003218;-72
2023/07/16 04:04:51;;;;;;;8.30;7.50;;;;;;;-128.00;-1.00;-1.00;105880;1250;1004186;-72
2023/07/16 04:07:18;;;;;;;8.20;7.60;;;;;;;-128.00;-1.00;-1.00;105916;1250;1004901;-72
2023/07/16 04:09:45;;;;;;;7.50;7.00;;;;;;;-128.00;-1.00;-1.00;105659;1251;1004433;-72
2023/07/16 04:12:11;;;;;;;7.90;7.00;;;;;;;-128.00;-1.00;-1.00;105936;1250;1004008;-72
2023/07/16 04:14:38;;;;;;;7.00;6.40;;;;;;;-128.00;-1.00;-1.00;105781;1250;1004307;-72
2023/07/16 04:17:05;;;;;;;8.20;7.50;;;;;;;-128.00;-1.00;-1.00;105869;1250;1004228;-72
2023/07/16 04:19:31;;;;;;;7.40;6.80;;;;;;;-128.00;-1.00;-1.00;105621;1251;1005267;-72
2023/07/16 04:21:58;;;;;;;8.30;6.90;;;;;;;-128.00;-1.00;-1.00;105909;1250;1004063;-72
2023/07/16 04:24:26;;;;;;;9.40;6.90;;;;;;;-128.00;-1.00;-1.00;105910;1250;1004165;-72
2023/07/16 04:26:53;;;;;;;7.60;7.00;;;;;;;-128.00;-1.00;-1.00;105896;1250;1060630;-72
2023/07/16 04:29:20;;;;;;;7.80;7.00;;;;;;;-128.00;-1.00;-1.00;105618;1250;1003600;-72
2023/07/16 04:31:47;;;;;;;8.60;7.30;;;;;;;-128.00;-1.00;-1.00;105894;1250;1003980;-72
2023/07/16 04:34:13;;;;;;;7.40;6.60;;;;;;;-128.00;-1.00;-1.00;105897;1250;1004125;-72
2023/07/16 04:36:42;;;;;;;7.50;6.90;;;;;;;-128.00;-1.00;-1.00;105907;1250;1005237;-72
2023/07/16 04:39:09;;;;;;;8.20;7.50;;;;;;;-128.00;-1.00;-1.00;105904;1250;1059493;-72
2023/07/16 04:41:36;;;;;;;7.80;7.20;;;;;;;-128.00;-1.00;-1.00;105937;1250;1004982;-72
2023/07/16 04:44:04;;;;;;;7.10;6.50;;;;;;;-128.00;-1.00;-1.00;105597;1251;1004038;-71
2023/07/16 04:46:31;;;;;;;6.40;5.90;;;;;;;-128.00;-1.00;-1.00;105871;1250;1044939;-72
2023/07/16 04:48:58;;;;;;;6.00;5.50;;;;;;;-128.00;-1.00;-1.00;105875;1250;1004677;-71
2023/07/16 04:51:24;;;;;;;6.40;5.80;;;;;;;-128.00;-1.00;-1.00;105870;1250;1003743;-72
2023/07/16 04:53:51;;;;;;;6.80;6.10;;;;;;;-128.00;-1.00;-1.00;105590;1251;1003922;-73
2023/07/16 04:56:18;;;;;;;7.20;6.50;;;;;;;-128.00;-1.00;-1.00;105919;1250;1004880;-73
2023/07/16 04:58:44;;;;;;;6.90;6.10;;;;;;;-128.00;-1.00;-1.00;105888;1250;1003969;-73
2023/07/16 05:01:11;;;;;;;6.80;6.10;;;;;;;-128.00;-1.00;-1.00;105907;1250;1003796;-72
2023/07/16 05:03:37;;;;;;;6.80;6.20;;;;;;;-128.00;-1.00;-1.00;105862;1250;1004203;-72
2023/07/16 05:06:05;;;;;;;6.20;5.70;;;;;;;-128.00;-1.00;-1.00;105879;1250;1004260;-72
2023/07/16 05:08:31;;;;;;;6.70;6.10;;;;;;;-128.00;-1.00;-1.00;105841;1250;1004253;-72
2023/07/16 05:10:59;;;;;;;6.90;6.30;;;;;;;-128.00;-1.00;-1.00;105862;1250;1003898;-72
2023/07/16 05:13:26;;;;;;;6.10;5.60;;;;;;;-128.00;-1.00;-1.00;105892;1250;1003817;-72
2023/07/16 05:15:52;;;;;;;8.40;6.90;;;;;;;-128.00;-1.00;-1.00;105778;1251;1003881;-72
2023/07/16 05:18:19;;;;;;;6.80;6.30;;;;;;;-128.00;-1.00;-1.00;105859;1250;1004195;-72
2023/07/16 05:20:49;;;;;;;6.60;6.10;;;;;;;-128.00;-1.00;-1.00;105878;1250;1004049;-73
2023/07/16 05:23:15;;;;;;;6.20;5.20;;;;;;;-128.00;-1.00;-1.00;105604;1251;1044991;-72
2023/07/16 05:25:49;;;;;;;6.00;5.50;;;;;;;-128.00;-1.00;-1.00;105927;1250;1003953;-74
2023/07/16 05:28:19;;;;;;;6.20;5.70;;;;;;;-128.00;-1.00;-1.00;105923;1250;1060955;-73
2023/07/16 05:30:45;;;;;;;6.50;5.90;;;;;;;-128.00;-1.00;-1.00;105607;1251;1056344;-73
2023/07/16 05:33:12;;;;;;;7.40;6.20;;;;;;;-128.00;-1.00;-1.00;105933;1250;1004498;-73
2023/07/16 05:35:39;;;;;;;6.70;6.10;;;;;;;-128.00;-1.00;-1.00;105874;1250;1004782;-73
2023/07/16 05:38:06;;;;;;;6.70;6.10;;;;;;;-128.00;-1.00;-1.00;105961;1250;1003907;-73
2023/07/16 05:40:32;;;;;;;6.30;5.80;;;;;;;-128.00;-1.00;-1.00;105922;1250;1004167;-73
2023/07/16 05:42:59;;;;;;;5.80;5.40;;;;;;;-128.00;-1.00;-1.00;105674;1251;1003849;-73
2023/07/16 05:45:26;;;;;;;6.10;5.60;;;;;;;-128.00;-1.00;-1.00;105911;1250;1003486;-73
2023/07/16 05:47:52;;;;;;;6.20;5.70;;;;;;;-128.00;-1.00;-1.00;105870;1250;1004489;-73
2023/07/16 05:50:19;;;;;;;7.10;6.30;;;;;;;-128.00;-1.00;-1.00;105914;1250;1004099;-73
2023/07/16 05:52:48;;;;;;;6.40;5.90;;;;;;;-128.00;-1.00;-1.00;105896;1250;1003769;-73
2023/07/16 05:55:15;;;;;;;6.20;5.60;;;;;;;-128.00;-1.00;-1.00;105850;1250;1056315;-73
2023/07/16 05:57:41;;;;;;;6.00;5.30;;;;;;;-128.00;-1.00;-1.00;105852;1250;1003583;-73
2023/07/16 06:00:08;;;;;;;7.20;6.60;;;;;;;-128.00;-1.00;-1.00;105900;1250;1003235;-73
2023/07/16 06:02:35;;;;;;;6.50;5.90;;;;;;;-128.00;-1.00;-1.00;105937;1250;1004319;-73
2023/07/16 06:05:02;;;;;;;6.40;5.80;;;;;;;-128.00;-1.00;-1.00;105895;1250;1005411;-73
2023/07/16 06:07:29;;;;;;;6.00;5.50;;;;;;;-128.00;-1.00;-1.00;105918;1250;1003606;-73
2023/07/16 06:09:55;;;;;;;7.00;5.40;;;;;;;-128.00;-1.00;-1.00;105876;1250;1003947;-74
2023/07/16 06:12:22;;;;;;;6.30;5.80;;;;;;;-128.00;-1.00;-1.00;105865;1250;1003917;-73
2023/07/16 06:14:48;;;;;;;6.50;5.90;;;;;;;-128.00;-1.00;-1.00;105864;1250;1004924;-73
2023/07/16 06:17:15;;;;;;;6.10;5.70;;;;;;;-128.00;-1.00;-1.00;105934;1250;1004433;-74
2023/07/16 06:19:42;;;;;;;7.40;6.50;;;;;;;-128.00;-1.00;-1.00;105860;1250;1004266;-73
2023/07/16 06:22:09;;;;;;;6.40;5.90;;;;;;;-128.00;-1.00;-1.00;105891;1250;1004794;-73
2023/07/16 06:24:35;;;;;;;7.50;6.00;;;;;;;-128.00;-1.00;-1.00;105888;1250;1003914;-73
2023/07/16 06:27:02;;;;;;;7.50;5.80;;;;;;;-128.00;-1.00;-1.00;105930;1250;1003859;-72
2023/07/16 06:29:29;;;;;;;5.30;4.90;;;;;;;-128.00;-1.00;-1.00;105868;1250;1003493;-73
2023/07/16 06:31:57;;;;;;;5.50;5.00;;;;;;;-128.00;-1.00;-1.00;105918;1250;1005139;-73
2023/07/16 06:34:26;;;;;;;5.20;4.80;;;;;;;-128.00;-1.00;-1.00;105863;1250;1003956;-73
2023/07/16 06:36:53;;;;;;;5.90;5.40;;;;;;;-128.00;-1.00;-1.00;105838;1250;1043869;-73
2023/07/16 06:39:20;;;;;;;6.80;5.50;;;;;;;-128.00;-1.00;-1.00;105908;1250;1004890;-73
2023/07/16 06:41:46;;;;;;;5.00;4.70;;;;;;;-128.00;-1.00;-1.00;105922;1250;1004888;-72
2023/07/16 06:44:13;;;;;;;5.70;5.30;;;;;;;-128.00;-1.00;-1.00;105900;1250;1004375;-73
2023/07/16 06:46:39;;;;;;;6.00;4.60;;;;;;;-128.00;-1.00;-1.00;105866;1250;1004777;-73
2023/07/16 06:49:09;;;;;;;5.00;4.60;;;;;;;-128.00;-1.00;-1.00;105886;1250;1004025;-73
2023/07/16 06:51:36;;;;;;;4.80;4.40;;;;;;;-128.00;-1.00;-1.00;105929;1250;1046672;-73
2023/07/16 06:54:02;;;;;;;6.10;5.50;;;;;;;-128.00;-1.00;-1.00;105936;1250;1003569;-74
2023/07/16 06:56:29;;;;;;;5.00;4.60;;;;;;;-128.00;-1.00;-1.00;105935;1250;1004293;-74
2023/07/16 06:58:56;;;;;;;4.70;4.40;;;;;;;-128.00;-1.00;-1.00;105880;1250;1004503;-74
2023/07/16 07:01:22;;;;;;;4.40;4.00;;;;;;;-128.00;-1.00;-1.00;105916;1250;1004331;-74
2023/07/16 07:03:49;;;;;;;5.50;4.90;;;;;;;-128.00;-1.00;-1.00;105911;1250;1004961;-74
2023/07/16 07:06:15;;;;;;;5.50;5.10;;;;;;;-128.00;-1.00;-1.00;105916;1250;1005126;-74
2023/07/16 07:08:42;;;;;;;5.60;5.20;;;;;;;-128.00;-1.00;-1.00;105936;1250;1004826;-74
2023/07/16 07:11:08;;;;;;;5.00;4.60;;;;;;;-128.00;-1.00;-1.00;105889;1250;1004420;-74
2023/07/16 07:13:35;;;;;;;5.10;4.60;;;;;;;-128.00;-1.00;-1.00;105575;1256;1004635;-74
2023/07/16 07:16:02;;;;;;;5.60;5.20;;;;;;;-128.00;-1.00;-1.00;105878;1250;1004802;-73
2023/07/16 07:18:29;;;;;;;5.60;5.10;;;;;;;-128.00;-1.00;-1.00;105927;1250;1003992;-74
2023/07/16 07:20:55;;;;;;;4.40;4.10;;;;;;;-128.00;-1.00;-1.00;105888;1250;1004381;-73
2023/07/16 07:23:22;;;;;;;4.90;4.50;;;;;;;-128.00;-1.00;-1.00;105610;1251;1003730;-73
2023/07/16 07:25:51;;;;;;;5.30;4.80;;;;;;;-128.00;-1.00;-1.00;105877;1250;1004082;-73
2023/07/16 07:28:18;;;;;;;5.20;4.80;;;;;;;-128.00;-1.00;-1.00;105827;1250;1048911;-73
2023/07/16 07:30:45;;;;;;;5.50;5.00;;;;;;;-128.00;-1.00;-1.00;105895;1250;1004087;-73
2023/07/16 07:33:12;;;;;;;6.00;5.50;;;;;;;-128.00;-1.00;-1.00;105584;1251;1004343;-74
2023/07/16 07:35:39;;;;;;;6.10;5.70;;;;;;;-128.00;-1.00;-1.00;105882;1250;1004094;-73
2023/07/16 07:38:05;;;;;;;6.60;6.00;;;;;;;-128.00;-1.00;-1.00;105856;1250;1004608;-73
2023/07/16 07:40:32;;;;;;;6.10;5.70;;;;;;;-128.00;-1.00;-1.00;105952;1250;1004050;-73
2023/07/16 07:42:59;;;;;;;6.40;6.00;;;;;;;-128.00;-1.00;-1.00;105888;1250;1003921;-73
2023/07/16 07:45:26;;;;;;;6.30;5.70;;;;;;;-128.00;-1.00;-1.00;105896;1250;1003918;-73
2023/07/16 07:47:52;;;;;;;6.40;5.80;;;;;;;-128.00;-1.00;-1.00;105848;1250;1004631;-73
2023/07/16 07:50:19;;;;;;;6.30;5.80;;;;;;;-128.00;-1.00;-1.00;105847;1250;1004156;-72
2023/07/16 07:52:46;;;;;;;7.50;6.60;;;;;;;-128.00;-1.00;-1.00;105878;1250;1004462;-73
2023/07/16 07:55:13;;;;;;;8.20;7.40;;;;;;;-128.00;-1.00;-1.00;105885;1250;1003656;-73
2023/07/16 07:57:39;;;;;;;8.30;7.50;;;;;;;-128.00;-1.00;-1.00;105935;1250;1004394;-73
2023/07/16 08:00:11;;;;;;;8.40;7.60;;;;;;;-128.00;-1.00;-1.00;105827;1251;1005313;-74
2023/07/16 08:02:38;;;;;;;8.80;7.50;;;;;;;-128.00;-1.00;-1.00;105857;1250;1043867;-73
2023/07/16 08:05:06;;;;;;;8.50;7.80;;;;;;;-128.00;-1.00;-1.00;105828;1251;1004031;-73
2023/07/16 08:07:32;;;;;;;7.70;7.10;;;;;;;-128.00;-1.00;-1.00;105843;1250;1004684;-73
2023/07/16 08:09:59;;;;;;;6.70;6.10;;;;;;;-128.00;-1.00;-1.00;105920;1250;1003902;-73
2023/07/16 08:12:26;;;;;;;6.60;5.90;;;;;;;-128.00;-1.00;-1.00;105851;1250;1004587;-73
2023/07/16 08:14:52;;;;;;;6.40;5.20;;;;;;;-128.00;-1.00;-1.00;105928;1250;1005150;-73
2023/07/16 08:17:19;;;;;;;4.60;4.20;;;;;;;-128.00;-1.00;-1.00;105897;1250;1003977;-72
2023/07/16 08:19:45;;;;;;;5.40;5.00;;;;;;;-128.00;-1.00;-1.00;105847;1250;1004163;-72
2023/07/16 08:22:12;;;;;;;4.70;4.20;;;;;;;-128.00;-1.00;-1.00;105893;1250;1003575;-74
2023/07/16 08:24:38;;;;;;;4.80;4.10;;;;;;;-128.00;-1.00;-1.00;105870;1250;1003863;-73
2023/07/16 08:27:05;;;;;;;5.00;4.30;;;;;;;-128.00;-1.00;-1.00;105579;1251;1004798;-73
2023/07/16 08:29:35;;;;;;;4.90;4.50;;;;;;;-128.00;-1.00;-1.00;105927;1250;1003949;-73
2023/07/16 08:32:03;;;;;;;6.20;4.40;;;;;;;-128.00;-1.00;-1.00;105586;1250;1061944;-73
2023/07/16 08:34:29;;;;;;;4.60;4.30;;;;;;;-128.00;-1.00;-1.00;105784;1251;1004239;-75
2023/07/16 08:36:56;;;;;;;4.40;4.10;;;;;;;-128.00;-1.00;-1.00;105818;1250;1005031;-72
2023/07/16 08:39:23;;;;;;;4.80;4.20;;;;;;;-128.00;-1.00;-1.00;105868;1250;1003778;-73
2023/07/16 08:41:49;;;;;;;5.10;4.20;;;;;;;-128.00;-1.00;-1.00;105912;1250;1004306;-73
2023/07/16 08:44:17;;;;;;;4.90;4.50;;;;;;;-128.00;-1.00;-1.00;105838;1250;1003723;-74
2023/07/16 08:46:44;;;;;;;7.00;4.20;;;;;;;-128.00;-1.00;-1.00;105860;1250;1003821;-73
2023/07/16 08:49:12;;;;;;;4.80;3.90;;;;;;;-128.00;-1.00;-1.00;105874;1250;1004842;-72
2023/07/16 08:51:39;;;;;;;5.10;4.00;;;;;;;-128.00;-1.00;-1.00;105842;1250;1003449;-74
2023/07/16 08:54:05;;;;;;;4.50;4.20;;;;;;;-128.00;-1.00;-1.00;105904;1250;1004702;-73
2023/07/16 08:56:32;;;;;;;4.70;4.30;;;;;;;-128.00;-1.00;-1.00;105904;1250;1005094;-74
2023/07/16 08:58:59;;;;;;;4.90;4.50;;;;;;;-128.00;-1.00;-1.00;105638;1250;1004415;-73
2023/07/16 09:01:27;;;;;;;4.40;4.00;;;;;;;-128.00;-1.00;-1.00;105564;1251;1003554;-74
2023/07/16 09:03:54;;;;;;;4.30;3.90;;;;;;;-128.00;-1.00;-1.00;105816;1250;1004775;-73
2023/07/16 09:06:20;;;;;;;5.50;4.40;;;;;;;-128.00;-1.00;-1.00;105837;1251;1004845;-73
2023/07/16 09:08:47;;;;;;;5.60;5.20;;;;;;;-128.00;-1.00;-1.00;105862;1250;1004141;-75
2023/07/16 09:11:14;;;;;;;5.20;4.70;;;;;;;-128.00;-1.00;-1.00;105606;1250;1003561;-73
2023/07/16 09:13:45;;;;;;;5.00;4.60;;;;;;;-128.00;-1.00;-1.00;105847;1250;1004518;-73
2023/07/16 09:16:11;;;;;;;5.30;4.80;;;;;;;-128.00;-1.00;-1.00;105845;1250;1044631;-73
2023/07/16 09:18:40;;;;;;;4.70;4.30;;;;;;;-128.00;-1.00;-1.00;105862;1250;1004812;-73
2023/07/16 09:21:06;;;;;;;5.40;5.00;;;;;;;-128.00;-1.00;-1.00;105882;1251;1061880;-73
2023/07/16 09:23:34;;;;;;;4.80;4.50;;;;;;;-128.00;-1.00;-1.00;105835;1250;1003397;-72
2023/07/16 09:26:03;;;;;;;5.30;4.90;;;;;;;-128.00;-1.00;-1.00;105807;1250;1004673;-72
2023/07/16 09:28:33;;;;;;;5.00;4.60;;;;;;;-128.00;-1.00;-1.00;105832;1250;1044601;-73
2023/07/16 09:31:07;;;;;;;6.00;5.50;;;;;;;-128.00;-1.00;-1.00;105835;1251;1047677;-73
2023/07/16 09:33:34;;;;;;;5.70;5.20;;;;;;;-128.00;-1.00;-1.00;105863;1250;1062189;-74
2023/07/16 09:36:02;;;;;;;5.10;4.70;;;;;;;-128.00;-1.00;-1.00;105870;1250;1004219;-74
2023/07/16 09:38:30;;;;;;;5.40;5.00;;;;;;;-128.00;-1.00;-1.00;105844;1250;1061127;-74
2023/07/16 09:40:56;;;;;;;6.40;5.90;;;;;;;-128.00;-1.00;-1.00;105832;1250;1004492;-74
2023/07/16 09:43:23;;;;;;;5.70;5.20;;;;;;;-128.00;-1.00;-1.00;105878;1250;1004622;-73
2023/07/16 09:45:50;;;;;;;7.00;6.30;;;;;;;-128.00;-1.00;-1.00;105819;1251;1004851;-73
2023/07/16 09:48:16;;;;;;;6.20;5.70;;;;;;;-128.00;-1.00;-1.00;105878;1250;1003938;-73
2023/07/16 09:50:51;;;;;;;6.50;5.90;;;;;;;-128.00;-1.00;-1.00;105821;1250;1004069;-73
2023/07/16 09:53:20;;;;;;;7.40;6.70;;;;;;;-128.00;-1.00;-1.00;105826;1250;1044355;-73
2023/07/16 09:55:48;;;;;;;6.90;6.10;;;;;;;-128.00;-1.00;-1.00;105844;1250;1047304;-73
2023/07/16 09:58:19;;;;;;;6.60;6.20;;;;;;;-128.00;-1.00;-1.00;105867;1250;1061865;-72
2023/07/16 10:00:47;;;;;;;7.40;6.80;;;;;;;-128.00;-1.00;-1.00;105881;1250;1055930;-73
2023/07/16 10:03:16;;;;;;;7.00;6.40;;;;;;;-128.00;-1.00;-1.00;105832;1250;1061349;-73
2023/07/16 10:05:42;;;;;;;6.50;5.90;;;;;;;-128.00;-1.00;-1.00;105801;1250;1004452;-73
2023/07/16 10:08:17;;;;;;;7.10;6.60;;;;;;;-128.00;-1.00;-1.00;105967;1250;1004333;-73
2023/07/16 10:10:53;;;;;;;7.60;7.00;;;;;;;-128.00;-1.00;-1.00;105924;1250;1061454;-73
2023/07/16 10:13:23;;;;;;;7.80;7.20;;;;;;;-128.00;-1.00;-1.00;105917;1250;1056084;-73
2023/07/16 10:15:59;;;;;;;10.30;7.80;;;;;;;-128.00;-1.00;-1.00;105845;1250;1059026;-72
2023/07/16 10:18:31;;;;;;;8.70;8.10;;;;;;;-128.00;-1.00;-1.00;105894;1250;1045674;-73
2023/07/16 10:21:05;;;;;;;8.20;7.50;;;;;;;-128.00;-1.00;-1.00;105876;1250;1046239;-73
2023/07/16 10:23:43;;;;;;;8.90;8.20;;;;;;;-128.00;-1.00;-1.00;105680;1250;1060686;-74
2023/07/16 10:26:12;;;;;;;8.60;8.10;;;;;;;-128.00;-1.00;-1.00;105854;1251;1055627;-73
2023/07/16 10:28:39;;;;;;;9.10;8.30;;;;;;;-128.00;-1.00;-1.00;105809;1251;1060362;-73
2023/07/16 10:31:17;;;;;;;8.70;8.10;;;;;;;-128.00;-1.00;-1.00;105841;1251;1003964;-73
2023/07/16 10:33:44;;;;;;;9.20;8.40;;;;;;;-128.00;-1.00;-1.00;105878;1251;1047403;-73
2023/07/16 10:36:18;;;;;;;9.40;8.60;;;;;;;-128.00;-1.00;-1.00;105847;1250;1004547;-73
2023/07/16 10:38:45;;;;;;;9.00;8.40;;;;;;;-128.00;-1.00;-1.00;105826;1251;1057016;-73
2023/07/16 10:41:12;;;;;;;9.50;8.80;;;;;;;-128.00;-1.00;-1.00;105873;1250;1004053;-73
2023/07/16 10:43:39;;;;;;;10.10;9.40;;;;;;;-128.00;-1.00;-1.00;105835;1250;1004670;-74
2023/07/16 10:46:06;;;;;;;9.50;8.90;;;;;;;-128.00;-1.00;-1.00;105675;1251;1004202;-73
2023/07/16 10:48:33;;;;;;;10.60;9.70;;;;;;;-128.00;-1.00;-1.00;105870;1251;1004086;-73
2023/07/16 10:50:59;;;;;;;10.20;9.50;;;;;;;-128.00;-1.00;-1.00;105860;1250;1005055;-74
2023/07/16 10:53:26;;;;;;;10.30;9.50;;;;;;;-128.00;-1.00;-1.00;105844;1251;1004097;-73
2023/07/16 10:55:53;;;;;;;10.30;9.60;;;;;;;-128.00;-1.00;-1.00;105846;1251;1004414;-72
2023/07/16 10:58:20;;;;;;;10.70;9.70;;;;;;;-128.00;-1.00;-1.00;105532;1251;1004202;-73
2023/07/16 11:00:47;;;;;;;10.40;9.60;;;;;;;-128.00;-1.00;-1.00;105883;1250;1003857;-73
2023/07/16 11:03:17;;;;;;;10.60;9.80;;;;;;;-128.00;-1.00;-1.00;105850;1251;1004152;-73
2023/07/16 11:05:46;;;;;;;10.90;10.10;;;;;;;-128.00;-1.00;-1.00;105837;1250;1059659;-74
2023/07/16 11:08:22;;;;;;;11.40;10.70;;;;;;;-128.00;-1.00;-1.00;105776;1250;1044641;-72
2023/07/16 11:10:58;;;;;;;11.30;10.50;;;;;;;-128.00;-1.00;-1.00;105857;1251;1047196;-73
2023/07/16 11:13:30;;;;;;;11.00;10.10;;;;;;;-128.00;-1.00;-1.00;105841;1250;1061665;-73